Dades meteomassalio
Diari Summary for Juny 11, 2017 Units:  English    Metric   Both
« Previous Day
Next Day »
Diari Semanal Mensual Anual Personalitzat
  Maxima: Minima: Mijana:
Temperatura: TemperatureC °F 16.3 °F 26.9 °F
Rosada: DewpointC °F 12.4 °F 14.3 °F
Humitat: Humidity % 26 % 49 %
Velocitat del vent: WindSpeedKMH mph 0.0 mph 4.6 mph
Racha vent: WindSpeedGustKMH mph - -
Vent:- - East
Pressio: PressurehPa in 1012.8 in -
Pluja: 0.0 in    
Historical Graphs
 
 
Tabular Data for Juny 11, 2017
Time Temperature Dew Point Pressure Wind Wind Speed Wind Gust Humidity Rainfall Rate (Hourly) solar Conditions
TemperatureC °F DewpointC °F PressurehPa in Calm     Humidity % HourlyPrecipMM in SolarRadiationWatts/m^2 W/m2 Conditions
00:01 16.9 °F 14.6 °F 1015.8 in Calm     86 % 0.0 in 0.0 W/m2 CLR
00:06 16.9 °F 14.6 °F 1016.1 in Calm     86 % 0.0 in 0.0 W/m2 CLR
00:11 16.8 °F 14.4 °F 1016.1 in Calm     86 % 0.0 in 0.0 W/m2 CLR
00:16 16.8 °F 14.4 °F 1016.1 in Calm     86 % 0.0 in 0.0 W/m2 CLR
00:21 16.7 °F 14.3 °F 1016.1 in Calm     86 % 0.0 in 0.0 W/m2 OVC
00:26 16.6 °F 14.2 °F 1016.1 in Calm     86 % 0.0 in 0.0 W/m2 OVC
00:31 16.6 °F 14.2 °F 1016.1 in Calm     86 % 0.0 in 5.0 W/m2 OVC
00:36 16.6 °F 14.2 °F 1016.1 in Calm     86 % 0.0 in 9.0 W/m2 BKN
00:41 16.5 °F 14.2 °F 1016.1 in Calm     86 % 0.0 in 11.0 W/m2 BKN
00:46 16.5 °F 14.2 °F 1016.1 in Calm     86 % 0.0 in 14.0 W/m2 BKN
00:51 16.4 °F 14.1 °F 1016.1 in Calm     86 % 0.0 in 16.0 W/m2 BKN
00:56 16.3 °F 13.9 °F 1016.1 in Calm     86 % 0.0 in 19.0 W/m2 BKN
01:01 16.3 °F 14.2 °F 1016.1 in Calm     87 % 0.0 in 23.0 W/m2 BKN
01:06 16.4 °F 14.3 °F 1016.1 in Calm     87 % 0.0 in 30.0 W/m2 BKN
01:11 16.6 °F 14.4 °F 1016.1 in Calm     87 % 0.0 in 39.0 W/m2 BKN
01:16 16.7 °F 14.6 °F 1016.1 in Calm     87 % 0.0 in 49.0 W/m2 SCT
01:21 16.9 °F 14.6 °F 1016.1 in Calm     86 % 0.0 in 60.0 W/m2 SCT
01:26 17.0 °F 14.7 °F 1016.5 in Calm     86 % 0.0 in 70.0 W/m2 FEW
01:31 17.2 °F 14.6 °F 1016.5 in Calm     85 % 0.0 in 83.0 W/m2 FEW
01:36 17.3 °F 14.8 °F 1016.5 in Calm     85 % 0.0 in 95.0 W/m2 FEW
01:41 17.6 °F 14.8 °F 1016.5 in Calm     84 % 0.0 in 113.0 W/m2 CLR
01:46 17.9 °F 15.2 °F 1016.5 in Calm     84 % 0.0 in 127.0 W/m2 CLR
01:51 18.2 °F 15.1 °F 1016.5 in Calm     82 % 0.0 in 142.0 W/m2 CLR
01:56 18.4 °F 15.1 °F 1016.5 in Calm     81 % 0.0 in 160.0 W/m2 CLR
02:01 18.7 °F 15.4 °F 1016.5 in Calm     81 % 0.0 in 176.0 W/m2 CLR
02:06 18.9 °F 15.4 °F 1016.5 in Calm     80 % 0.0 in 192.0 W/m2 CLR
02:11 19.3 °F 15.4 °F 1016.5 in Calm     78 % 0.0 in 206.0 W/m2 CLR
02:16 19.7 °F 15.6 °F 1016.5 in Calm     77 % 0.0 in 221.0 W/m2 CLR
02:21 20.1 °F 15.7 °F 1016.5 in Calm     76 % 0.0 in 239.0 W/m2 CLR
02:26 20.5 °F 15.7 °F 1016.5 in Calm     74 % 0.0 in 253.0 W/m2 CLR
02:31 20.9 °F 16.1 °F 1016.8 in Calm     74 % 0.0 in 267.0 W/m2 CLR
02:36 21.3 °F 16.1 °F 1016.8 in Calm     72 % 0.0 in 281.0 W/m2 CLR
02:41 21.7 °F 16.2 °F 1016.8 in Calm     71 % 0.0 in 299.0 W/m2 CLR
02:46 22.0 °F 16.3 °F 1016.8 in Calm     70 % 0.0 in 315.0 W/m2 CLR
02:51 22.3 °F 16.4 °F 1016.8 in Calm     69 % 0.0 in 329.0 W/m2 CLR
02:56 22.7 °F 16.2 °F 1016.8 in Calm     67 % 0.0 in 343.0 W/m2 CLR
03:01 23.0 °F 16.3 °F 1016.8 in Calm     66 % 0.0 in 359.0 W/m2 CLR
03:06 23.3 °F 16.6 °F 1016.5 in Calm     66 % 0.0 in 374.0 W/m2 CLR
03:11 23.9 °F 16.9 °F 1016.5 in Calm     65 % 0.0 in 390.0 W/m2 CLR
03:16 24.3 °F 16.8 °F 1016.5 in Calm     63 % 0.0 in 404.0 W/m2 CLR
03:21 24.4 °F 16.9 °F 1016.5 in Calm     63 % 0.0 in 420.0 W/m2 CLR
03:26 24.4 °F 16.9 °F 1016.5 in Calm     63 % 0.0 in 438.0 W/m2 CLR
03:31 24.4 °F 16.9 °F 1016.5 in Calm     63 % 0.0 in 452.0 W/m2 CLR
03:36 24.7 °F 17.2 °F 1016.5 in Calm     63 % 0.0 in 466.0 W/m2 CLR
03:41 25.1 °F 17.0 °F 1016.5 in Calm     61 % 0.0 in 480.0 W/m2 CLR
03:46 25.4 °F 17.3 °F 1016.5 in Calm     61 % 0.0 in 497.0 W/m2 CLR
03:51 25.8 °F 17.2 °F 1016.5 in Calm     59 % 0.0 in 512.0 W/m2 CLR
03:56 26.1 °F 17.4 °F 1016.5 in Calm     59 % 0.0 in 526.0 W/m2 CLR
04:01 26.3 °F 17.1 °F 1016.5 in Calm     57 % 0.0 in 540.0 W/m2 CLR
04:06 26.2 °F 17.6 °F 1016.5 in Calm     59 % 0.0 in 554.0 W/m2 CLR
04:11 26.4 °F 17.8 °F 1016.8 in Calm   0.2 mph 59 % 0.0 in 570.0 W/m2 CLR
04:16 26.6 °F 17.7 °F 1016.8 in ENE 1.9 mph 1.9 mph 58 % 0.0 in 584.0 W/m2 CLR
04:21 26.7 °F 17.8 °F 1016.5 in East 1.9 mph 1.9 mph 58 % 0.0 in 596.0 W/m2 CLR
04:26 26.9 °F 17.7 °F 1016.5 in ENE 5.6 mph 5.6 mph 57 % 0.0 in 610.0 W/m2 CLR
04:31 26.9 °F 17.4 °F 1016.8 in ENE 6.4 mph 6.4 mph 56 % 0.0 in 624.0 W/m2 CLR
04:36 26.7 °F 17.5 °F 1016.8 in ENE 7.4 mph 7.4 mph 57 % 0.0 in 636.0 W/m2 CLR
04:41 27.0 °F 17.5 °F 1016.5 in ENE 8.0 mph 8.0 mph 56 % 0.0 in 650.0 W/m2 CLR
04:46 27.2 °F 17.9 °F 1016.5 in ENE 8.0 mph 8.0 mph 57 % 0.0 in 663.0 W/m2 CLR
04:51 27.3 °F 17.2 °F 1016.5 in ENE 7.4 mph 7.4 mph 54 % 0.0 in 677.0 W/m2 CLR
04:56 27.4 °F 17.3 °F 1016.5 in ENE 7.4 mph 7.4 mph 54 % 0.0 in 687.0 W/m2 CLR
05:01 27.6 °F 17.1 °F 1016.5 in NE 13.0 mph 13.0 mph 53 % 0.0 in 701.0 W/m2 CLR
05:06 27.9 °F 16.5 °F 1016.5 in NE 9.7 mph 9.7 mph 50 % 0.0 in 712.0 W/m2 CLR
05:11 28.0 °F 16.6 °F 1016.5 in ENE 3.7 mph   50 % 0.0 in 722.0 W/m2 CLR
05:16 28.1 °F 15.7 °F 1016.5 in ENE 11.1 mph 11.1 mph 47 % 0.0 in 737.0 W/m2 CLR
05:22 28.3 °F 16.3 °F 1016.5 in NE 5.6 mph 5.6 mph 48 % 0.0 in 745.0 W/m2 CLR
05:27 28.6 °F 16.8 °F 1016.5 in NNE 8.0 mph 8.0 mph 49 % 0.0 in 756.0 W/m2 CLR
05:37 28.9 °F 16.5 °F 1016.5 in Calm     47 % 0.0 in 779.0 W/m2 CLR
05:42 29.3 °F 16.8 °F 1016.5 in NE 5.6 mph   47 % 0.0 in 788.0 W/m2 CLR
05:47 29.5 °F 16.3 °F 1016.5 in NE 7.4 mph 7.4 mph 45 % 0.0 in 798.0 W/m2 CLR
05:52 29.7 °F 15.8 °F 1016.1 in Calm     43 % 0.0 in 807.0 W/m2 CLR
05:57 30.0 °F 16.1 °F 1016.1 in ENE 3.7 mph   43 % 0.0 in 816.0 W/m2 CLR
06:02 30.1 °F 15.7 °F 1016.1 in NE 5.6 mph   42 % 0.0 in 826.0 W/m2 CLR
06:07 30.0 °F 16.1 °F 1016.1 in NE 5.6 mph 5.6 mph 43 % 0.0 in 833.0 W/m2 CLR
06:12 30.0 °F 16.1 °F 1016.1 in NE 9.3 mph 9.3 mph 43 % 0.0 in 840.0 W/m2 CLR
06:17 30.1 °F 15.4 °F 1016.1 in Calm     41 % 0.0 in 849.0 W/m2 CLR
06:22 30.3 °F 16.7 °F 1016.1 in ENE 9.3 mph 9.3 mph 44 % 0.0 in 856.0 W/m2 CLR
06:27 30.6 °F 15.8 °F 1016.1 in NE 5.6 mph 5.6 mph 41 % 0.0 in 863.0 W/m2 CLR
06:32 30.8 °F 16.1 °F 1016.1 in Calm     41 % 0.0 in 865.0 W/m2 CLR
06:37 30.9 °F 16.2 °F 1015.8 in NE 9.3 mph 9.3 mph 41 % 0.0 in 874.0 W/m2 CLR
06:42 31.1 °F 15.9 °F 1015.8 in NE 7.4 mph 7.4 mph 40 % 0.0 in 881.0 W/m2 CLR
06:47 31.2 °F 16.3 °F 1015.8 in Calm     41 % 0.0 in 888.0 W/m2 CLR
06:52 31.6 °F 16.8 °F 1015.8 in NE 13.0 mph 13.0 mph 41 % 0.0 in 891.0 W/m2 CLR
06:57 31.7 °F 16.8 °F 1015.8 in ENE 8.0 mph 8.0 mph 41 % 0.0 in 896.0 W/m2 CLR
07:02 31.8 °F 16.6 °F 1015.8 in NNE 5.6 mph   40 % 0.0 in 900.0 W/m2 CLR
07:07 31.9 °F 16.6 °F 1015.8 in ENE 13.0 mph 13.0 mph 40 % 0.0 in 905.0 W/m2 CLR
07:12 32.2 °F 16.4 °F 1015.5 in ENE 7.4 mph 7.4 mph 39 % 0.0 in 911.0 W/m2 CLR
07:17 32.3 °F 16.2 °F 1015.5 in North 7.4 mph 7.4 mph 38 % 0.0 in 912.0 W/m2 CLR
07:22 32.2 °F 15.6 °F 1015.5 in NNE 18.5 mph 18.5 mph 37 % 0.0 in 914.0 W/m2 CLR
07:27 32.2 °F 16.1 °F 1015.5 in NNE 13.0 mph 13.0 mph 38 % 0.0 in 916.0 W/m2 CLR
07:32 32.3 °F 16.2 °F 1015.5 in NE 11.1 mph 11.1 mph 38 % 0.0 in 919.0 W/m2 CLR
07:37 32.6 °F 16.0 °F 1015.5 in ENE 9.3 mph 9.3 mph 37 % 0.0 in 923.0 W/m2 CLR
07:42 32.6 °F 15.6 °F 1015.1 in NE 9.3 mph 9.3 mph 36 % 0.0 in 925.0 W/m2 CLR
07:47 32.8 °F 15.8 °F 1015.1 in NE 11.1 mph 11.1 mph 36 % 0.0 in 925.0 W/m2 CLR
07:52 33.1 °F 16.1 °F 1015.1 in ENE 7.4 mph 7.4 mph 36 % 0.0 in 925.0 W/m2 CLR
07:57 33.4 °F 15.4 °F 1015.1 in NNE 16.7 mph 16.7 mph 34 % 0.0 in 928.0 W/m2 CLR
08:02 33.4 °F 15.4 °F 1015.1 in NE 14.8 mph 14.8 mph 34 % 0.0 in 928.0 W/m2 CLR
08:07 33.4 °F 14.5 °F 1015.1 in ENE 3.7 mph 3.7 mph 32 % 0.0 in 928.0 W/m2 CLR
08:12 33.7 °F 13.7 °F 1015.1 in NNE 11.1 mph 11.1 mph 30 % 0.0 in 928.0 W/m2 CLR
08:17 33.8 °F 13.3 °F 1015.1 in NNE 14.8 mph 14.8 mph 29 % 0.0 in 928.0 W/m2 CLR
08:22 33.9 °F 12.9 °F 1015.1 in East 14.8 mph 14.8 mph 28 % 0.0 in 926.0 W/m2 CLR
08:27 34.0 °F 13.4 °F 1014.8 in ENE 8.0 mph 8.0 mph 29 % 0.0 in 926.0 W/m2 CLR
08:32 34.2 °F 12.5 °F 1014.8 in NNE 1.9 mph   27 % 0.0 in 925.0 W/m2 CLR
08:37 34.2 °F 13.1 °F 1014.8 in NE 11.1 mph 11.1 mph 28 % 0.0 in 921.0 W/m2 CLR
08:42 34.3 °F 13.7 °F 1014.8 in ENE 9.3 mph 9.3 mph 29 % 0.0 in 918.0 W/m2 CLR
08:47 34.5 °F 13.3 °F 1014.8 in NE 14.8 mph 14.8 mph 28 % 0.0 in 914.0 W/m2 CLR
08:52 34.7 °F 13.0 °F 1014.4 in NE 9.7 mph 9.7 mph 27 % 0.0 in 909.0 W/m2 CLR
08:57 34.8 °F 13.1 °F 1014.4 in NNE 11.1 mph 11.1 mph 27 % 0.0 in 909.0 W/m2 CLR
09:02 34.8 °F 13.0 °F 1014.4 in NE 7.4 mph 7.4 mph 27 % 0.0 in 904.0 W/m2 CLR
09:07 34.8 °F 13.1 °F 1014.4 in NE 7.4 mph 7.4 mph 27 % 0.0 in 898.0 W/m2 CLR
09:12 34.9 °F 13.7 °F 1014.4 in NNE 9.7 mph 9.7 mph 28 % 0.0 in 891.0 W/m2 CLR
09:17 35.1 °F 13.3 °F 1014.4 in NE 18.5 mph 18.5 mph 27 % 0.0 in 888.0 W/m2 CLR
09:22 35.2 °F 14.4 °F 1014.4 in East 7.4 mph 7.4 mph 29 % 0.0 in 882.0 W/m2 CLR
09:27 34.8 °F 13.6 °F 1014.4 in ESE 13.0 mph 13.0 mph 28 % 0.0 in 875.0 W/m2 CLR
09:32 34.6 °F 13.9 °F 1014.1 in NE 13.0 mph 13.0 mph 29 % 0.0 in 870.0 W/m2 CLR
09:37 34.7 °F 13.5 °F 1014.1 in North 16.7 mph 16.7 mph 28 % 0.0 in 860.0 W/m2 CLR
09:42 35.0 °F 13.8 °F 1014.1 in NE 9.3 mph 9.3 mph 28 % 0.0 in 860.0 W/m2 CLR
09:47 35.3 °F 14.0 °F 1014.1 in SE 5.6 mph 5.6 mph 28 % 0.0 in 849.0 W/m2 CLR
09:52 35.1 °F 13.9 °F 1014.1 in ESE 13.0 mph 13.0 mph 28 % 0.0 in 840.0 W/m2 CLR
09:57 34.9 °F 13.7 °F 1014.1 in East 8.0 mph 8.0 mph 28 % 0.0 in 830.0 W/m2 CLR
10:02 34.9 °F 13.2 °F 1013.8 in NNE 18.5 mph 18.5 mph 27 % 0.0 in 826.0 W/m2 CLR
10:07 35.2 °F 13.4 °F 1013.8 in ENE 11.1 mph 11.1 mph 27 % 0.0 in 812.0 W/m2 CLR
10:12 35.4 °F 14.1 °F 1013.8 in East 9.7 mph 9.7 mph 28 % 0.0 in 803.0 W/m2 CLR
10:17 35.4 °F 13.6 °F 1013.8 in SE 9.7 mph 9.7 mph 27 % 0.0 in 795.0 W/m2 CLR
10:22 35.2 °F 14.5 °F 1013.8 in ENE 3.7 mph 3.7 mph 29 % 0.0 in 788.0 W/m2 CLR
10:27 35.4 °F 13.6 °F 1013.8 in East 7.4 mph 7.4 mph 27 % 0.0 in 775.0 W/m2 CLR
10:32 35.2 °F 13.4 °F 1013.8 in NE 13.0 mph 13.0 mph 27 % 0.0 in 765.0 W/m2 CLR
10:37 35.2 °F 12.8 °F 1013.8 in ENE 12.9 mph 12.9 mph 26 % 0.0 in 756.0 W/m2 CLR
10:42 35.2 °F 13.3 °F 1013.4 in NE 3.7 mph 3.7 mph 27 % 0.0 in 745.0 W/m2 CLR
10:47 35.4 °F 14.1 °F 1013.4 in ENE 18.5 mph 18.5 mph 28 % 0.0 in 733.0 W/m2 CLR
10:52 35.1 °F 12.7 °F 1013.4 in ENE 13.0 mph 13.0 mph 26 % 0.0 in 719.0 W/m2 CLR
10:57 35.1 °F 14.3 °F 1013.4 in ENE 5.6 mph   29 % 0.0 in 708.0 W/m2 CLR
11:02 34.9 °F 14.8 °F 1013.4 in ESE 9.7 mph 9.7 mph 30 % 0.0 in 698.0 W/m2 CLR
11:07 35.1 °F 14.4 °F 1013.4 in East 5.6 mph 5.6 mph 29 % 0.0 in 682.0 W/m2 CLR
11:12 35.2 °F 13.9 °F 1013.4 in ENE 13.0 mph 13.0 mph 28 % 0.0 in 671.0 W/m2 CLR
11:17 34.9 °F 14.3 °F 1013.1 in ENE 18.5 mph 18.5 mph 29 % 0.0 in 661.0 W/m2 CLR
11:22 34.7 °F 14.1 °F 1013.1 in East 6.4 mph 6.4 mph 29 % 0.0 in 647.0 W/m2 CLR
11:27 34.8 °F 13.6 °F 1013.1 in SE 9.7 mph 9.7 mph 28 % 0.0 in 631.0 W/m2 CLR
11:32 34.8 °F 13.6 °F 1013.1 in ESE 13.0 mph 13.0 mph 28 % 0.0 in 621.0 W/m2 CLR
11:37 34.7 °F 13.6 °F 1013.1 in ESE 11.3 mph 11.3 mph 28 % 0.0 in 608.0 W/m2 CLR
11:42 34.6 °F 13.4 °F 1013.1 in ESE 7.4 mph 7.4 mph 28 % 0.0 in 592.0 W/m2 CLR
11:47 34.6 °F 13.4 °F 1013.1 in East 13.0 mph 13.0 mph 28 % 0.0 in 578.0 W/m2 CLR
11:49 34.5 °F 13.9 °F 1013.1 in SE 11.1 mph 11.1 mph 29 % 0.0 in 575.0 W/m2 CLR
11:54 34.5 °F 13.3 °F 1013.1 in ESE 11.1 mph 11.1 mph 28 % 0.0 in 561.0 W/m2 CLR
11:59 34.5 °F 13.3 °F 1013.1 in East 9.3 mph 9.3 mph 28 % 0.0 in 547.0 W/m2 CLR
12:04 34.3 °F 13.2 °F 1013.1 in ESE 13.0 mph 13.0 mph 28 % 0.0 in 534.0 W/m2 CLR
12:09 34.3 °F 13.2 °F 1013.1 in ESE 11.1 mph 11.1 mph 28 % 0.0 in 520.0 W/m2 CLR
12:14 34.4 °F 13.2 °F 1013.1 in ESE 11.1 mph 11.1 mph 28 % 0.0 in 504.0 W/m2 CLR
12:19 34.3 °F 13.2 °F 1012.8 in East 13.0 mph 13.0 mph 28 % 0.0 in 490.0 W/m2 CLR
12:24 34.2 °F 13.7 °F 1012.8 in ESE 7.4 mph 7.4 mph 29 % 0.0 in 475.0 W/m2 CLR
12:29 34.1 °F 14.1 °F 1012.8 in ESE 13.0 mph 13.0 mph 30 % 0.0 in 461.0 W/m2 CLR
12:34 34.0 °F 13.4 °F 1012.8 in East 11.1 mph 11.1 mph 29 % 0.0 in 446.0 W/m2 CLR
12:39 33.9 °F 13.3 °F 1012.8 in ENE 9.3 mph 9.3 mph 29 % 0.0 in 429.0 W/m2 CLR
12:44 33.8 °F 13.8 °F 1012.8 in SE 11.1 mph 11.1 mph 30 % 0.0 in 413.0 W/m2 CLR
12:49 33.6 °F 14.2 °F 1012.8 in ESE 16.7 mph 16.7 mph 31 % 0.0 in 399.0 W/m2 CLR
12:54 33.4 °F 14.0 °F 1012.8 in ESE 13.0 mph 13.0 mph 31 % 0.0 in 385.0 W/m2 CLR
12:59 33.4 °F 13.4 °F 1012.8 in East 11.3 mph 11.3 mph 30 % 0.0 in 367.0 W/m2 CLR
13:04 33.3 °F 13.8 °F 1012.8 in SE 9.3 mph 9.3 mph 31 % 0.0 in 352.0 W/m2 CLR
13:09 33.3 °F 13.8 °F 1012.8 in East 9.3 mph 9.3 mph 31 % 0.0 in 338.0 W/m2 CLR
13:14 33.3 °F 14.3 °F 1012.8 in ESE 7.4 mph 7.4 mph 32 % 0.0 in 322.0 W/m2 CLR
13:19 33.2 °F 14.3 °F 1012.8 in SE 5.6 mph 5.6 mph 32 % 0.0 in 304.0 W/m2 CLR
13:24 33.2 °F 14.3 °F 1012.8 in SSE 7.4 mph 7.4 mph 32 % 0.0 in 288.0 W/m2 CLR
13:29 32.9 °F 14.0 °F 1012.8 in SE 14.8 mph 14.8 mph 32 % 0.0 in 274.0 W/m2 CLR
13:34 32.8 °F 14.4 °F 1012.8 in ESE 13.0 mph 13.0 mph 33 % 0.0 in 260.0 W/m2 CLR
13:39 32.7 °F 14.8 °F 1012.8 in ESE 13.0 mph 13.0 mph 34 % 0.0 in 246.0 W/m2 CLR
13:44 32.6 °F 14.7 °F 1013.1 in ESE 11.1 mph 11.1 mph 34 % 0.0 in 227.0 W/m2 CLR
13:49 32.5 °F 14.6 °F 1012.8 in ESE 11.1 mph 11.1 mph 34 % 0.0 in 213.0 W/m2 CLR
13:54 32.4 °F 14.6 °F 1013.1 in ESE 9.3 mph 9.3 mph 34 % 0.0 in 197.0 W/m2 CLR
13:59 32.3 °F 14.4 °F 1013.1 in SE 9.3 mph 9.3 mph 34 % 0.0 in 181.0 W/m2 CLR
14:05 32.3 °F 14.4 °F 1013.1 in ESE 9.3 mph 9.3 mph 34 % 0.0 in 162.0 W/m2 CLR
14:10 32.2 °F 14.4 °F 1013.1 in ESE 8.0 mph 8.0 mph 34 % 0.0 in 144.0 W/m2 CLR
14:15 32.1 °F 14.7 °F 1013.1 in ESE 9.3 mph 9.3 mph 35 % 0.0 in 128.0 W/m2 CLR
14:20 31.9 °F 14.1 °F 1013.1 in ESE 7.4 mph 7.4 mph 34 % 0.0 in 114.0 W/m2 CLR
14:25 31.8 °F 14.5 °F 1013.1 in ESE 7.4 mph 7.4 mph 35 % 0.0 in 97.0 W/m2 CLR
14:30 31.7 °F 14.4 °F 1013.1 in Calm     35 % 0.0 in 84.0 W/m2 CLR
14:35 31.5 °F 14.2 °F 1013.1 in ESE 7.4 mph 7.4 mph 35 % 0.0 in 72.0 W/m2 FEW
14:40 31.4 °F 14.5 °F 1013.1 in Calm     36 % 0.0 in 60.0 W/m2 SCT
14:45 31.3 °F 14.4 °F 1013.1 in SE 1.6 mph 2.1 mph 36 % 0.0 in 26.0 W/m2 BKN
14:50 31.1 °F 14.3 °F 1013.1 in Calm     36 % 0.0 in 39.0 W/m2 BKN
14:55 31.0 °F 14.2 °F 1013.1 in SSE 13.0 mph 13.0 mph 36 % 0.0 in 30.0 W/m2 BKN
15:00 30.9 °F 14.1 °F 1013.1 in SSE 11.3 mph 11.3 mph 36 % 0.0 in 23.0 W/m2 BKN
15:05 30.8 °F 14.1 °F 1013.1 in SE 11.3 mph 11.3 mph 36 % 0.0 in 18.0 W/m2 BKN
15:10 30.7 °F 13.9 °F 1013.4 in SE 11.1 mph 11.1 mph 36 % 0.0 in 14.0 W/m2 BKN
15:15 30.5 °F 14.2 °F 1013.4 in SE 9.3 mph 9.3 mph 37 % 0.0 in 12.0 W/m2 BKN
15:20 30.3 °F 14.0 °F 1013.4 in SE 7.4 mph 7.4 mph 37 % 0.0 in 9.0 W/m2 BKN
15:25 30.2 °F 13.9 °F 1013.4 in SSE 11.3 mph 11.3 mph 37 % 0.0 in 7.0 W/m2 BKN
15:30 30.1 °F 13.8 °F 1013.4 in SE 11.3 mph 11.3 mph 37 % 0.0 in 0.0 W/m2 OVC
15:35 29.9 °F 13.2 °F 1013.4 in SE 11.1 mph 11.1 mph 36 % 0.0 in 0.0 W/m2 OVC
15:40 29.8 °F 13.6 °F 1013.4 in SE 11.1 mph 11.1 mph 37 % 0.0 in 0.0 W/m2 OVC
15:45 29.7 °F 13.5 °F 1013.4 in SE 9.3 mph 9.3 mph 37 % 0.0 in 0.0 W/m2 CLR
15:50 29.6 °F 13.7 °F 1013.4 in SE 5.6 mph 5.6 mph 38 % 0.0 in 0.0 W/m2 CLR
15:55 29.4 °F 13.2 °F 1013.8 in Calm   1.1 mph 37 % 0.0 in 0.0 W/m2 CLR
16:00 29.3 °F 13.5 °F 1013.8 in Calm     38 % 0.0 in 0.0 W/m2 CLR
16:05 29.1 °F 12.9 °F 1013.8 in Calm     37 % 0.0 in 0.0 W/m2 CLR
16:10 28.9 °F 12.8 °F 1013.8 in Calm     37 % 0.0 in 0.0 W/m2 CLR
16:15 28.8 °F 12.7 °F 1013.8 in Calm     37 % 0.0 in 0.0 W/m2 CLR
16:20 28.7 °F 12.6 °F 1014.1 in Calm     37 % 0.0 in 0.0 W/m2 CLR
16:25 28.6 °F 12.5 °F 1014.1 in Calm     37 % 0.0 in 0.0 W/m2 CLR
16:30 28.4 °F 12.7 °F 1014.1 in Calm     38 % 0.0 in 0.0 W/m2 CLR
16:31 28.4 °F 12.7 °F 1014.1 in Calm     38 % 0.0 in 0.0 W/m2 CLR
16:36 28.1 °F 12.4 °F 1014.1 in Calm     38 % 0.0 in 0.0 W/m2 CLR
16:41 27.9 °F 12.7 °F 1014.1 in Calm     39 % 0.0 in 0.0 W/m2 CLR
16:46 27.8 °F 12.9 °F 1014.1 in Calm     40 % 0.0 in 0.0 W/m2 CLR
16:51 27.6 °F 12.4 °F 1014.4 in Calm     39 % 0.0 in 0.0 W/m2 CLR
16:57 27.5 °F 12.7 °F 1014.4 in Calm     40 % 0.0 in 0.0 W/m2 CLR
17:02 27.4 °F 12.6 °F 1014.4 in Calm     40 % 0.0 in 0.0 W/m2 CLR
17:07 27.3 °F 12.5 °F 1014.4 in Calm     40 % 0.0 in 0.0 W/m2 CLR
17:12 27.2 °F 12.8 °F 1014.4 in Calm     41 % 0.0 in 0.0 W/m2 CLR
17:17 27.1 °F 12.7 °F 1014.4 in Calm     41 % 0.0 in 0.0 W/m2 CLR
17:22 26.9 °F 12.9 °F 1014.4 in Calm     42 % 0.0 in 0.0 W/m2 CLR
17:27 26.7 °F 13.1 °F 1014.8 in Calm     43 % 0.0 in 0.0 W/m2 CLR
17:32 26.4 °F 12.8 °F 1014.8 in Calm     43 % 0.0 in 0.0 W/m2 CLR
17:37 25.9 °F 13.7 °F 1014.8 in Calm     47 % 0.0 in 0.0 W/m2 CLR
17:42 25.3 °F 13.5 °F 1014.8 in Calm     48 % 0.0 in 0.0 W/m2 CLR
17:47 24.9 °F 13.2 °F 1014.8 in Calm     48 % 0.0 in 0.0 W/m2 CLR
17:52 25.0 °F 12.9 °F 1014.8 in Calm     47 % 0.0 in 0.0 W/m2 CLR
17:57 25.2 °F 13.1 °F 1014.8 in ENE 3.7 mph   47 % 0.0 in 0.0 W/m2 CLR
17:58 25.2 °F 12.8 °F 1014.8 in Calm     46 % 0.0 in 0.0 W/m2 CLR
18:03 25.3 °F 12.8 °F 1014.8 in Calm     46 % 0.0 in 0.0 W/m2 CLR
18:08 25.2 °F 12.8 °F 1014.8 in Calm     46 % 0.0 in 0.0 W/m2 CLR
18:13 25.1 °F 12.7 °F 1014.8 in Calm     46 % 0.0 in 0.0 W/m2 CLR
18:18 24.9 °F 12.8 °F 1014.8 in Calm     47 % 0.0 in 0.0 W/m2 CLR
18:23 24.7 °F 12.9 °F 1014.8 in Calm     48 % 0.0 in 0.0 W/m2 CLR
18:28 24.5 °F 13.1 °F 1015.1 in Calm     49 % 0.0 in 0.0 W/m2 CLR
18:33 24.4 °F 13.0 °F 1015.1 in Calm     49 % 0.0 in 0.0 W/m2 CLR
18:38 24.3 °F 12.9 °F 1015.1 in Calm     49 % 0.0 in 0.0 W/m2 CLR
18:43 24.2 °F 12.8 °F 1015.1 in Calm     49 % 0.0 in 0.0 W/m2 CLR
18:48 24.0 °F 12.9 °F 1015.1 in Calm     50 % 0.0 in 0.0 W/m2 CLR
18:53 23.8 °F 13.1 °F 1015.1 in Calm     51 % 0.0 in 0.0 W/m2 CLR
18:58 23.7 °F 13.2 °F 1015.1 in Calm     52 % 0.0 in 0.0 W/m2 CLR
19:03 23.6 °F 13.1 °F 1015.1 in Calm     52 % 0.0 in 0.0 W/m2 CLR
19:08 23.4 °F 13.3 °F 1015.1 in Calm     53 % 0.0 in 0.0 W/m2 CLR
19:13 23.3 °F 13.2 °F 1015.1 in Calm     53 % 0.0 in 0.0 W/m2 CLR
19:18 23.1 °F 13.2 °F 1015.1 in Calm     54 % 0.0 in 0.0 W/m2 CLR
19:23 22.9 °F 13.1 °F 1015.1 in Calm     54 % 0.0 in 0.0 W/m2 CLR
19:28 22.8 °F 13.1 °F 1015.1 in Calm     54 % 0.0 in 0.0 W/m2 CLR
19:33 22.8 °F 13.3 °F 1015.1 in Calm     55 % 0.0 in 0.0 W/m2 CLR
19:38 22.7 °F 13.2 °F 1015.5 in Calm     55 % 0.0 in 0.0 W/m2 CLR
19:43 22.5 °F 13.3 °F 1015.5 in Calm     56 % 0.0 in 0.0 W/m2 CLR
19:48 22.3 °F 13.4 °F 1015.5 in Calm     57 % 0.0 in 0.0 W/m2 CLR
19:53 22.2 °F 13.3 °F 1015.5 in Calm     57 % 0.0 in 0.0 W/m2 CLR
19:58 22.1 °F 13.7 °F 1015.5 in Calm     59 % 0.0 in 0.0 W/m2 CLR
20:03 22.0 °F 13.6 °F 1015.5 in Calm     59 % 0.0 in 0.0 W/m2 CLR
20:08 21.8 °F 13.7 °F 1015.5 in Calm     60 % 0.0 in 0.0 W/m2 CLR
20:13 21.6 °F 13.8 °F 1015.5 in Calm     61 % 0.0 in 0.0 W/m2 CLR
20:18 21.4 °F 13.6 °F 1015.5 in Calm     61 % 0.0 in 0.0 W/m2 CLR
20:23 21.2 °F 13.7 °F 1015.5 in Calm     62 % 0.0 in 0.0 W/m2 CLR
20:28 21.0 °F 13.7 °F 1015.5 in Calm     63 % 0.0 in 0.0 W/m2 CLR
20:33 20.8 °F 13.7 °F 1015.5 in Calm     64 % 0.0 in 0.0 W/m2 CLR
20:38 20.6 °F 13.8 °F 1015.5 in Calm     65 % 0.0 in 0.0 W/m2 CLR
20:44 20.3 °F 14.0 °F 1015.5 in Calm     67 % 0.0 in 0.0 W/m2 CLR
20:49 20.0 °F 13.9 °F 1015.5 in Calm     68 % 0.0 in 0.0 W/m2 CLR
20:54 19.8 °F 13.8 °F 1015.5 in Calm     68 % 0.0 in 0.0 W/m2 CLR
20:59 19.8 °F 13.7 °F 1015.5 in Calm     68 % 0.0 in 0.0 W/m2 CLR
21:04 19.7 °F 13.6 °F 1015.8 in Calm     68 % 0.0 in 0.0 W/m2 CLR
21:09 19.6 °F 13.7 °F 1015.8 in Calm     69 % 0.0 in 0.0 W/m2 CLR
21:14 19.5 °F 13.7 °F 1015.8 in Calm     69 % 0.0 in 0.0 W/m2 CLR
21:19 19.3 °F 13.7 °F 1015.8 in Calm     70 % 0.0 in 0.0 W/m2 CLR
21:24 19.2 °F 13.6 °F 1015.8 in Calm     70 % 0.0 in 0.0 W/m2 CLR
21:29 19.1 °F 13.2 °F 1015.8 in Calm     69 % 0.0 in 0.0 W/m2 CLR
21:34 19.1 °F 13.1 °F 1015.8 in SW 7.4 mph 7.4 mph 68 % 0.0 in 0.0 W/m2 CLR
21:39 19.2 °F 13.1 °F 1015.8 in Calm     68 % 0.0 in 0.0 W/m2 CLR
21:44 19.3 °F 13.1 °F 1015.8 in Calm     67 % 0.0 in 0.0 W/m2 CLR
21:49 19.4 °F 13.1 °F 1015.8 in Calm     67 % 0.0 in 0.0 W/m2 CLR
21:54 19.4 °F 13.2 °F 1016.1 in Calm     67 % 0.0 in 0.0 W/m2 CLR
21:59 19.5 °F 13.2 °F 1015.8 in Calm     67 % 0.0 in 0.0 W/m2 CLR
22:04 19.5 °F 13.2 °F 1015.8 in Calm     67 % 0.0 in 0.0 W/m2 CLR
22:09 19.4 °F 13.1 °F 1016.1 in Calm     67 % 0.0 in 0.0 W/m2 CLR
22:14 19.4 °F 13.4 °F 1015.8 in Calm     68 % 0.0 in 0.0 W/m2 CLR
22:19 19.7 °F 13.6 °F 1016.1 in WSW 11.1 mph 11.1 mph 68 % 0.0 in 0.0 W/m2 CLR
22:24 20.2 °F 13.6 °F 1016.1 in WSW 11.1 mph 11.1 mph 66 % 0.0 in 0.0 W/m2 CLR
22:29 20.5 °F 13.7 °F 1016.1 in WSW 5.6 mph 5.6 mph 65 % 0.0 in 0.0 W/m2 CLR
22:34 20.6 °F 13.6 °F 1016.1 in Calm     64 % 0.0 in 0.0 W/m2 CLR
22:39 20.5 °F 13.4 °F 1016.1 in Calm     64 % 0.0 in 0.0 W/m2 CLR
22:49 20.2 °F 13.6 °F 1016.5 in Calm   0.2 mph 66 % 0.0 in 0.0 W/m2 CLR
22:54 20.0 °F 13.7 °F 1016.5 in SW 5.6 mph 5.6 mph 67 % 0.0 in 0.0 W/m2 CLR
22:59 19.9 °F 13.8 °F 1016.5 in Calm     68 % 0.0 in 0.0 W/m2 CLR
23:04 19.8 °F 13.7 °F 1016.5 in Calm     68 % 0.0 in 0.0 W/m2 CLR
23:09 19.8 °F 13.9 °F 1016.5 in Calm     69 % 0.0 in 0.0 W/m2 CLR
23:14 19.7 °F 14.1 °F 1016.5 in Calm     70 % 0.0 in 0.0 W/m2 CLR
23:19 19.7 °F 14.1 °F 1016.5 in Calm     70 % 0.0 in 0.0 W/m2 CLR
23:24 19.8 °F 14.4 °F 1016.5 in Calm     71 % 0.0 in 0.0 W/m2 CLR
23:29 19.7 °F 14.3 °F 1016.5 in Calm     71 % 0.0 in 0.0 W/m2 CLR
23:34 19.7 °F 14.3 °F 1016.5 in Calm     71 % 0.0 in 0.0 W/m2 CLR
23:39 19.6 °F 14.2 °F 1016.5 in Calm     71 % 0.0 in 0.0 W/m2 CLR
23:44 19.6 °F 14.4 °F 1016.5 in Calm     72 % 0.0 in 0.0 W/m2 CLR
23:49 19.6 °F 14.8 °F 1016.8 in WNW 1.9 mph   74 % 0.0 in 0.0 W/m2 CLR
23:54 19.6 °F 14.8 °F 1016.8 in WNW 5.6 mph 5.6 mph 74 % 0.0 in 0.0 W/m2 CLR
23:59 19.7 °F 14.7 °F 1016.8 in Calm     73 % 0.0 in 0.0 W/m2 CLR
Lo Temps de Massalio
Compliments of Weather Underground - 1.25 mb